sensor_id;sensor_type;location;lat;lon;timestamp;temperature;humidity
26037;DHT22;13810;48.376;10.944;2023-05-23T00:00:27;15.50;99.90
26037;DHT22;13810;48.376;10.944;2023-05-23T00:00:58;15.50;99.90
26037;DHT22;13810;48.376;10.944;2023-05-23T00:01:29;15.50;99.90
26037;DHT22;13810;48.376;10.944;2023-05-23T00:02:00;15.50;99.90
26037;DHT22;13810;48.376;10.944;2023-05-23T00:02:31;15.50;99.90
26037;DHT22;13810;48.376;10.944;2023-05-23T00:03:02;15.50;99.90
26037;DHT22;13810;48.376;10.944;2023-05-23T00:03:34;15.50;99.90
26037;DHT22;13810;48.376;10.944;2023-05-23T00:04:05;15.50;99.90
26037;DHT22;13810;48.376;10.944;2023-05-23T00:04:36;15.50;99.90
26037;DHT22;13810;48.376;10.944;2023-05-23T00:05:07;15.50;99.90
26037;DHT22;13810;48.376;10.944;2023-05-23T00:05:38;15.50;99.90
26037;DHT22;13810;48.376;10.944;2023-05-23T00:06:09;15.50;99.90
26037;DHT22;13810;48.376;10.944;2023-05-23T00:06:39;15.50;99.90
26037;DHT22;13810;48.376;10.944;2023-05-23T00:07:16;15.50;99.90
26037;DHT22;13810;48.376;10.944;2023-05-23T00:07:46;15.50;99.90
26037;DHT22;13810;48.376;10.944;2023-05-23T00:08:18;15.50;99.90
26037;DHT22;13810;48.376;10.944;2023-05-23T00:08:48;15.50;99.90
26037;DHT22;13810;48.376;10.944;2023-05-23T00:09:19;15.50;99.90
26037;DHT22;13810;48.376;10.944;2023-05-23T00:09:50;15.50;99.90
26037;DHT22;13810;48.376;10.944;2023-05-23T00:10:21;15.50;99.90
26037;DHT22;13810;48.376;10.944;2023-05-23T00:10:52;15.50;99.90
26037;DHT22;13810;48.376;10.944;2023-05-23T00:11:22;15.60;99.90
26037;DHT22;13810;48.376;10.944;2023-05-23T00:11:56;15.60;99.90
26037;DHT22;13810;48.376;10.944;2023-05-23T00:12:27;15.60;99.90
26037;DHT22;13810;48.376;10.944;2023-05-23T00:12:58;15.60;99.90
26037;DHT22;13810;48.376;10.944;2023-05-23T00:13:29;15.60;99.90
26037;DHT22;13810;48.376;10.944;2023-05-23T00:14:02;15.60;99.90
26037;DHT22;13810;48.376;10.944;2023-05-23T00:14:33;15.60;99.90
26037;DHT22;13810;48.376;10.944;2023-05-23T00:15:05;15.60;99.90
26037;DHT22;13810;48.376;10.944;2023-05-23T00:15:40;15.50;99.90
26037;DHT22;13810;48.376;10.944;2023-05-23T00:16:11;15.50;99.90
26037;DHT22;13810;48.376;10.944;2023-05-23T00:16:42;15.50;99.90
26037;DHT22;13810;48.376;10.944;2023-05-23T00:17:14;15.50;99.90
26037;DHT22;13810;48.376;10.944;2023-05-23T00:17:46;15.60;99.90
26037;DHT22;13810;48.376;10.944;2023-05-23T00:18:17;15.50;99.90
26037;DHT22;13810;48.376;10.944;2023-05-23T00:18:48;15.50;99.90
26037;DHT22;13810;48.376;10.944;2023-05-23T00:19:19;15.50;99.90
26037;DHT22;13810;48.376;10.944;2023-05-23T00:19:50;15.50;99.90
26037;DHT22;13810;48.376;10.944;2023-05-23T00:20:21;15.50;99.90
26037;DHT22;13810;48.376;10.944;2023-05-23T00:20:52;15.50;99.90
26037;DHT22;13810;48.376;10.944;2023-05-23T00:21:23;15.50;99.90
26037;DHT22;13810;48.376;10.944;2023-05-23T00:21:54;15.50;99.90
26037;DHT22;13810;48.376;10.944;2023-05-23T00:22:27;15.50;99.90
26037;DHT22;13810;48.376;10.944;2023-05-23T00:22:58;15.50;99.90
26037;DHT22;13810;48.376;10.944;2023-05-23T00:23:29;15.50;99.90
26037;DHT22;13810;48.376;10.944;2023-05-23T00:23:59;15.50;99.90
26037;DHT22;13810;48.376;10.944;2023-05-23T00:24:31;15.50;99.90
26037;DHT22;13810;48.376;10.944;2023-05-23T00:25:02;15.50;99.90
26037;DHT22;13810;48.376;10.944;2023-05-23T00:25:34;15.50;99.90
26037;DHT22;13810;48.376;10.944;2023-05-23T00:26:05;15.50;99.90
26037;DHT22;13810;48.376;10.944;2023-05-23T00:26:35;15.50;99.90
26037;DHT22;13810;48.376;10.944;2023-05-23T00:27:06;15.50;99.90
26037;DHT22;13810;48.376;10.944;2023-05-23T00:27:37;15.50;99.90
26037;DHT22;13810;48.376;10.944;2023-05-23T00:28:07;15.50;99.90
26037;DHT22;13810;48.376;10.944;2023-05-23T00:28:38;15.50;99.90
26037;DHT22;13810;48.376;10.944;2023-05-23T00:29:08;15.50;99.90
26037;DHT22;13810;48.376;10.944;2023-05-23T00:29:45;15.50;99.90
26037;DHT22;13810;48.376;10.944;2023-05-23T00:30:15;15.50;99.90
26037;DHT22;13810;48.376;10.944;2023-05-23T00:30:46;15.50;99.90
26037;DHT22;13810;48.376;10.944;2023-05-23T00:31:18;15.50;99.90
26037;DHT22;13810;48.376;10.944;2023-05-23T00:31:49;15.50;99.90
26037;DHT22;13810;48.376;10.944;2023-05-23T00:32:19;15.60;99.90
26037;DHT22;13810;48.376;10.944;2023-05-23T00:32:50;15.60;99.90
26037;DHT22;13810;48.376;10.944;2023-05-23T00:33:23;15.60;99.90
26037;DHT22;13810;48.376;10.944;2023-05-23T00:33:54;15.60;99.90
26037;DHT22;13810;48.376;10.944;2023-05-23T00:34:24;15.60;99.90
26037;DHT22;13810;48.376;10.944;2023-05-23T00:34:55;15.60;99.90
26037;DHT22;13810;48.376;10.944;2023-05-23T00:35:26;15.60;99.90
26037;DHT22;13810;48.376;10.944;2023-05-23T00:35:57;15.60;99.90
26037;DHT22;13810;48.376;10.944;2023-05-23T00:36:27;15.60;99.90
26037;DHT22;13810;48.376;10.944;2023-05-23T00:36:58;15.60;99.90
26037;DHT22;13810;48.376;10.944;2023-05-23T00:37:29;15.60;99.90
26037;DHT22;13810;48.376;10.944;2023-05-23T00:37:59;15.60;99.90
26037;DHT22;13810;48.376;10.944;2023-05-23T00:38:31;15.70;99.90
26037;DHT22;13810;48.376;10.944;2023-05-23T00:39:02;15.60;99.90
26037;DHT22;13810;48.376;10.944;2023-05-23T00:39:34;15.70;99.90
26037;DHT22;13810;48.376;10.944;2023-05-23T00:40:05;15.60;99.90
26037;DHT22;13810;48.376;10.944;2023-05-23T00:40:36;15.60;99.90
26037;DHT22;13810;48.376;10.944;2023-05-23T00:41:07;15.60;99.90
26037;DHT22;13810;48.376;10.944;2023-05-23T00:41:37;15.70;99.90
26037;DHT22;13810;48.376;10.944;2023-05-23T00:42:08;15.70;99.90
26037;DHT22;13810;48.376;10.944;2023-05-23T00:42:38;15.70;99.90
26037;DHT22;13810;48.376;10.944;2023-05-23T00:43:09;15.70;99.90
26037;DHT22;13810;48.376;10.944;2023-05-23T00:43:40;15.70;99.90
26037;DHT22;13810;48.376;10.944;2023-05-23T00:44:11;15.70;99.90
26037;DHT22;13810;48.376;10.944;2023-05-23T00:44:41;15.70;99.90
26037;DHT22;13810;48.376;10.944;2023-05-23T00:45:13;15.70;99.90
26037;DHT22;13810;48.376;10.944;2023-05-23T00:45:43;15.70;99.90
26037;DHT22;13810;48.376;10.944;2023-05-23T00:46:15;15.70;99.90
26037;DHT22;13810;48.376;10.944;2023-05-23T00:46:51;15.70;99.90
26037;DHT22;13810;48.376;10.944;2023-05-23T00:47:22;15.70;99.90
26037;DHT22;13810;48.376;10.944;2023-05-23T00:47:53;15.70;99.90
26037;DHT22;13810;48.376;10.944;2023-05-23T00:48:25;15.80;99.90
26037;DHT22;13810;48.376;10.944;2023-05-23T00:48:56;15.80;99.90
26037;DHT22;13810;48.376;10.944;2023-05-23T00:49:27;15.80;99.90
26037;DHT22;13810;48.376;10.944;2023-05-23T00:49:58;15.80;99.90
26037;DHT22;13810;48.376;10.944;2023-05-23T00:50:29;15.80;99.90
26037;DHT22;13810;48.376;10.944;2023-05-23T00:51:00;15.80;99.90
26037;DHT22;13810;48.376;10.944;2023-05-23T00:51:32;15.80;99.90
26037;DHT22;13810;48.376;10.944;2023-05-23T00:52:03;15.80;99.90
26037;DHT22;13810;48.376;10.944;2023-05-23T00:52:34;15.80;99.90
26037;DHT22;13810;48.376;10.944;2023-05-23T00:53:04;15.80;99.90
26037;DHT22;13810;48.376;10.944;2023-05-23T00:53:35;15.80;99.90
26037;DHT22;13810;48.376;10.944;2023-05-23T00:54:06;15.80;99.90
26037;DHT22;13810;48.376;10.944;2023-05-23T00:54:38;15.80;99.90
26037;DHT22;13810;48.376;10.944;2023-05-23T00:55:09;15.80;99.90
26037;DHT22;13810;48.376;10.944;2023-05-23T00:55:40;15.80;99.90
26037;DHT22;13810;48.376;10.944;2023-05-23T00:56:10;15.80;99.90
26037;DHT22;13810;48.376;10.944;2023-05-23T00:56:42;15.80;99.90
26037;DHT22;13810;48.376;10.944;2023-05-23T00:57:13;15.80;99.90
26037;DHT22;13810;48.376;10.944;2023-05-23T00:57:44;15.80;99.90
26037;DHT22;13810;48.376;10.944;2023-05-23T00:58:14;15.80;99.90
26037;DHT22;13810;48.376;10.944;2023-05-23T00:58:47;15.80;99.90
26037;DHT22;13810;48.376;10.944;2023-05-23T00:59:18;15.80;99.90
26037;DHT22;13810;48.376;10.944;2023-05-23T00:59:50;15.80;99.90
26037;DHT22;13810;48.376;10.944;2023-05-23T01:00:25;15.70;99.90
26037;DHT22;13810;48.376;10.944;2023-05-23T01:00:55;15.70;99.90
26037;DHT22;13810;48.376;10.944;2023-05-23T01:01:26;15.80;99.90
26037;DHT22;13810;48.376;10.944;2023-05-23T01:01:57;15.80;99.90
26037;DHT22;13810;48.376;10.944;2023-05-23T01:02:30;15.70;99.90
26037;DHT22;13810;48.376;10.944;2023-05-23T01:03:03;15.70;99.90
26037;DHT22;13810;48.376;10.944;2023-05-23T01:03:34;15.80;99.90
26037;DHT22;13810;48.376;10.944;2023-05-23T01:04:05;15.70;99.90
26037;DHT22;13810;48.376;10.944;2023-05-23T01:04:37;15.70;99.90
26037;DHT22;13810;48.376;10.944;2023-05-23T01:05:12;15.70;99.90
26037;DHT22;13810;48.376;10.944;2023-05-23T01:05:44;15.80;99.90
26037;DHT22;13810;48.376;10.944;2023-05-23T01:06:15;15.80;99.90
26037;DHT22;13810;48.376;10.944;2023-05-23T01:06:46;15.80;99.90
26037;DHT22;13810;48.376;10.944;2023-05-23T01:07:21;15.70;99.90
26037;DHT22;13810;48.376;10.944;2023-05-23T01:07:53;15.70;99.90
26037;DHT22;13810;48.376;10.944;2023-05-23T01:08:24;15.70;99.90
26037;DHT22;13810;48.376;10.944;2023-05-23T01:08:57;15.70;99.90
26037;DHT22;13810;48.376;10.944;2023-05-23T01:09:31;15.70;99.90
26037;DHT22;13810;48.376;10.944;2023-05-23T01:10:03;15.70;99.90
26037;DHT22;13810;48.376;10.944;2023-05-23T01:10:34;15.70;99.90
26037;DHT22;13810;48.376;10.944;2023-05-23T01:11:13;15.70;99.90
26037;DHT22;13810;48.376;10.944;2023-05-23T01:12:13;15.70;99.90
26037;DHT22;13810;48.376;10.944;2023-05-23T01:13:05;15.70;99.90
26037;DHT22;13810;48.376;10.944;2023-05-23T01:13:44;15.70;99.90
26037;DHT22;13810;48.376;10.944;2023-05-23T01:14:23;15.70;99.90
26037;DHT22;13810;48.376;10.944;2023-05-23T01:15:05;15.70;99.90
26037;DHT22;13810;48.376;10.944;2023-05-23T01:16:15;15.70;99.90
26037;DHT22;13810;48.376;10.944;2023-05-23T01:16:57;15.70;99.90
26037;DHT22;13810;48.376;10.944;2023-05-23T01:17:50;15.70;99.90
26037;DHT22;13810;48.376;10.944;2023-05-23T01:20:06;15.60;99.90
26037;DHT22;13810;48.376;10.944;2023-05-23T01:20:58;15.70;99.90
26037;DHT22;13810;48.376;10.944;2023-05-23T01:21:31;15.60;99.90
26037;DHT22;13810;48.376;10.944;2023-05-23T01:22:15;15.60;99.90
26037;DHT22;13810;48.376;10.944;2023-05-23T01:24:35;15.60;99.90
26037;DHT22;13810;48.376;10.944;2023-05-23T01:27:21;15.60;99.90
26037;DHT22;13810;48.376;10.944;2023-05-23T01:27:59;15.50;99.90
26037;DHT22;13810;48.376;10.944;2023-05-23T01:28:32;15.50;99.90
26037;DHT22;13810;48.376;10.944;2023-05-23T01:29:25;15.50;99.90
26037;DHT22;13810;48.376;10.944;2023-05-23T01:29:58;15.50;99.90
26037;DHT22;13810;48.376;10.944;2023-05-23T01:30:31;15.50;99.90
26037;DHT22;13810;48.376;10.944;2023-05-23T01:31:06;15.50;99.90
26037;DHT22;13810;48.376;10.944;2023-05-23T01:31:42;15.50;99.90
26037;DHT22;13810;48.376;10.944;2023-05-23T01:32:16;15.50;99.90
26037;DHT22;13810;48.376;10.944;2023-05-23T01:32:49;15.50;99.90
26037;DHT22;13810;48.376;10.944;2023-05-23T01:33:21;15.50;99.90
26037;DHT22;13810;48.376;10.944;2023-05-23T01:33:53;15.50;99.90
26037;DHT22;13810;48.376;10.944;2023-05-23T01:34:24;15.50;99.90
26037;DHT22;13810;48.376;10.944;2023-05-23T01:34:55;15.50;99.90
26037;DHT22;13810;48.376;10.944;2023-05-23T01:35:27;15.50;99.90
26037;DHT22;13810;48.376;10.944;2023-05-23T01:36:00;15.50;99.90
26037;DHT22;13810;48.376;10.944;2023-05-23T01:36:39;15.50;99.90
26037;DHT22;13810;48.376;10.944;2023-05-23T01:37:11;15.50;99.90
26037;DHT22;13810;48.376;10.944;2023-05-23T01:37:48;15.50;99.90
26037;DHT22;13810;48.376;10.944;2023-05-23T01:38:18;15.50;99.90
26037;DHT22;13810;48.376;10.944;2023-05-23T01:38:49;15.50;99.90
26037;DHT22;13810;48.376;10.944;2023-05-23T01:39:20;15.50;99.90
26037;DHT22;13810;48.376;10.944;2023-05-23T01:39:51;15.50;99.90
26037;DHT22;13810;48.376;10.944;2023-05-23T01:40:23;15.50;99.90
26037;DHT22;13810;48.376;10.944;2023-05-23T01:40:54;15.40;99.90
26037;DHT22;13810;48.376;10.944;2023-05-23T01:41:24;15.50;99.90
26037;DHT22;13810;48.376;10.944;2023-05-23T01:41:56;15.50;99.90
26037;DHT22;13810;48.376;10.944;2023-05-23T01:42:26;15.50;99.90
26037;DHT22;13810;48.376;10.944;2023-05-23T01:42:57;15.50;99.90
26037;DHT22;13810;48.376;10.944;2023-05-23T01:43:28;15.50;99.90
26037;DHT22;13810;48.376;10.944;2023-05-23T01:43:59;15.40;99.90
26037;DHT22;13810;48.376;10.944;2023-05-23T01:44:32;15.40;99.90
26037;DHT22;13810;48.376;10.944;2023-05-23T01:45:04;15.40;99.90
26037;DHT22;13810;48.376;10.944;2023-05-23T01:45:35;15.40;99.90
26037;DHT22;13810;48.376;10.944;2023-05-23T01:46:07;15.40;99.90
26037;DHT22;13810;48.376;10.944;2023-05-23T01:46:38;15.40;99.90
26037;DHT22;13810;48.376;10.944;2023-05-23T01:47:10;15.40;99.90
26037;DHT22;13810;48.376;10.944;2023-05-23T01:47:41;15.30;99.90
26037;DHT22;13810;48.376;10.944;2023-05-23T01:48:14;15.30;99.90
26037;DHT22;13810;48.376;10.944;2023-05-23T01:48:46;15.30;99.90
26037;DHT22;13810;48.376;10.944;2023-05-23T01:49:17;15.30;99.90
26037;DHT22;13810;48.376;10.944;2023-05-23T01:49:49;15.30;99.90
26037;DHT22;13810;48.376;10.944;2023-05-23T01:50:22;15.30;99.90
26037;DHT22;13810;48.376;10.944;2023-05-23T01:50:53;15.30;99.90
26037;DHT22;13810;48.376;10.944;2023-05-23T01:51:26;15.30;99.90
26037;DHT22;13810;48.376;10.944;2023-05-23T01:51:59;15.30;99.90
26037;DHT22;13810;48.376;10.944;2023-05-23T01:52:31;15.20;99.90
26037;DHT22;13810;48.376;10.944;2023-05-23T01:53:02;15.20;99.90
26037;DHT22;13810;48.376;10.944;2023-05-23T01:53:34;15.20;99.90
26037;DHT22;13810;48.376;10.944;2023-05-23T01:54:06;15.20;99.90
26037;DHT22;13810;48.376;10.944;2023-05-23T01:54:37;15.20;99.90
26037;DHT22;13810;48.376;10.944;2023-05-23T01:55:09;15.20;99.90
26037;DHT22;13810;48.376;10.944;2023-05-23T01:55:41;15.20;99.90
26037;DHT22;13810;48.376;10.944;2023-05-23T01:56:12;15.10;99.90
26037;DHT22;13810;48.376;10.944;2023-05-23T01:56:44;15.10;99.90
26037;DHT22;13810;48.376;10.944;2023-05-23T01:57:15;15.10;99.90
26037;DHT22;13810;48.376;10.944;2023-05-23T01:57:48;15.10;99.90
26037;DHT22;13810;48.376;10.944;2023-05-23T01:58:20;15.10;99.90
26037;DHT22;13810;48.376;10.944;2023-05-23T01:58:50;15.10;99.90
26037;DHT22;13810;48.376;10.944;2023-05-23T01:59:21;15.10;99.90
26037;DHT22;13810;48.376;10.944;2023-05-23T01:59:52;15.00;99.90
26037;DHT22;13810;48.376;10.944;2023-05-23T02:00:23;15.10;99.90
26037;DHT22;13810;48.376;10.944;2023-05-23T02:00:53;15.10;99.90
26037;DHT22;13810;48.376;10.944;2023-05-23T02:01:24;15.00;99.90
26037;DHT22;13810;48.376;10.944;2023-05-23T02:01:55;15.00;99.90
26037;DHT22;13810;48.376;10.944;2023-05-23T02:02:26;15.00;99.90
26037;DHT22;13810;48.376;10.944;2023-05-23T02:02:56;15.00;99.90
26037;DHT22;13810;48.376;10.944;2023-05-23T02:03:27;15.00;99.90
26037;DHT22;13810;48.376;10.944;2023-05-23T02:03:58;15.00;99.90
26037;DHT22;13810;48.376;10.944;2023-05-23T02:04:29;15.00;99.90
26037;DHT22;13810;48.376;10.944;2023-05-23T02:05:00;15.00;99.90
26037;DHT22;13810;48.376;10.944;2023-05-23T02:05:30;15.00;99.90
26037;DHT22;13810;48.376;10.944;2023-05-23T02:06:01;15.00;99.90
26037;DHT22;13810;48.376;10.944;2023-05-23T02:06:32;15.00;99.90
26037;DHT22;13810;48.376;10.944;2023-05-23T02:07:02;15.00;99.90
26037;DHT22;13810;48.376;10.944;2023-05-23T02:07:33;15.00;99.90
26037;DHT22;13810;48.376;10.944;2023-05-23T02:08:04;15.00;99.90
26037;DHT22;13810;48.376;10.944;2023-05-23T02:08:34;14.90;99.90
26037;DHT22;13810;48.376;10.944;2023-05-23T02:09:05;14.90;99.90
26037;DHT22;13810;48.376;10.944;2023-05-23T02:09:36;15.00;99.90
26037;DHT22;13810;48.376;10.944;2023-05-23T02:10:08;14.90;99.90
26037;DHT22;13810;48.376;10.944;2023-05-23T02:10:39;15.00;99.90
26037;DHT22;13810;48.376;10.944;2023-05-23T02:11:09;14.90;99.90
26037;DHT22;13810;48.376;10.944;2023-05-23T02:11:40;14.90;99.90
26037;DHT22;13810;48.376;10.944;2023-05-23T02:12:11;14.90;99.90
26037;DHT22;13810;48.376;10.944;2023-05-23T02:12:41;14.90;99.90
26037;DHT22;13810;48.376;10.944;2023-05-23T02:13:12;14.90;99.90
26037;DHT22;13810;48.376;10.944;2023-05-23T02:13:42;14.90;99.90
26037;DHT22;13810;48.376;10.944;2023-05-23T02:14:13;14.90;99.90
26037;DHT22;13810;48.376;10.944;2023-05-23T02:14:44;14.90;99.90
26037;DHT22;13810;48.376;10.944;2023-05-23T02:15:14;14.90;99.90
26037;DHT22;13810;48.376;10.944;2023-05-23T02:15:46;14.90;99.90
26037;DHT22;13810;48.376;10.944;2023-05-23T02:16:17;14.90;99.90
26037;DHT22;13810;48.376;10.944;2023-05-23T02:16:48;14.90;99.90
26037;DHT22;13810;48.376;10.944;2023-05-23T02:17:18;14.90;99.90
26037;DHT22;13810;48.376;10.944;2023-05-23T02:17:51;14.90;99.90
26037;DHT22;13810;48.376;10.944;2023-05-23T02:18:22;14.90;99.90
26037;DHT22;13810;48.376;10.944;2023-05-23T02:18:55;14.90;99.90
26037;DHT22;13810;48.376;10.944;2023-05-23T02:19:26;14.90;99.90
26037;DHT22;13810;48.376;10.944;2023-05-23T02:19:56;14.90;99.90
26037;DHT22;13810;48.376;10.944;2023-05-23T02:20:27;14.90;99.90
26037;DHT22;13810;48.376;10.944;2023-05-23T02:20:58;14.90;99.90
26037;DHT22;13810;48.376;10.944;2023-05-23T02:21:28;14.80;99.90
26037;DHT22;13810;48.376;10.944;2023-05-23T02:21:59;14.80;99.90
26037;DHT22;13810;48.376;10.944;2023-05-23T02:22:30;14.80;99.90
26037;DHT22;13810;48.376;10.944;2023-05-23T02:23:01;14.80;99.90
26037;DHT22;13810;48.376;10.944;2023-05-23T02:23:31;14.80;99.90
26037;DHT22;13810;48.376;10.944;2023-05-23T02:24:02;14.80;99.90
26037;DHT22;13810;48.376;10.944;2023-05-23T02:24:33;14.80;99.90
26037;DHT22;13810;48.376;10.944;2023-05-23T02:25:04;14.80;99.90
26037;DHT22;13810;48.376;10.944;2023-05-23T02:25:34;14.80;99.90
26037;DHT22;13810;48.376;10.944;2023-05-23T02:26:05;14.80;99.90
26037;DHT22;13810;48.376;10.944;2023-05-23T02:26:36;14.80;99.90
26037;DHT22;13810;48.376;10.944;2023-05-23T02:27:07;14.80;99.90
26037;DHT22;13810;48.376;10.944;2023-05-23T02:27:37;14.80;99.90
26037;DHT22;13810;48.376;10.944;2023-05-23T02:28:08;14.80;99.90
26037;DHT22;13810;48.376;10.944;2023-05-23T02:28:41;14.70;99.90
26037;DHT22;13810;48.376;10.944;2023-05-23T02:29:11;14.70;99.90
26037;DHT22;13810;48.376;10.944;2023-05-23T02:29:42;14.70;99.90
26037;DHT22;13810;48.376;10.944;2023-05-23T02:30:13;14.70;99.90
26037;DHT22;13810;48.376;10.944;2023-05-23T02:30:44;14.70;99.90
26037;DHT22;13810;48.376;10.944;2023-05-23T02:31:14;14.70;99.90
26037;DHT22;13810;48.376;10.944;2023-05-23T02:31:46;14.70;99.90
26037;DHT22;13810;48.376;10.944;2023-05-23T02:32:17;14.70;99.90
26037;DHT22;13810;48.376;10.944;2023-05-23T02:32:47;14.70;99.90
26037;DHT22;13810;48.376;10.944;2023-05-23T02:33:18;14.70;99.90
26037;DHT22;13810;48.376;10.944;2023-05-23T02:33:49;14.70;99.90
26037;DHT22;13810;48.376;10.944;2023-05-23T02:34:19;14.70;99.90
26037;DHT22;13810;48.376;10.944;2023-05-23T02:34:50;14.70;99.90
26037;DHT22;13810;48.376;10.944;2023-05-23T02:35:21;14.70;99.90
26037;DHT22;13810;48.376;10.944;2023-05-23T02:35:52;14.70;99.90
26037;DHT22;13810;48.376;10.944;2023-05-23T02:36:24;14.60;99.90
26037;DHT22;13810;48.376;10.944;2023-05-23T02:36:56;14.60;99.90
26037;DHT22;13810;48.376;10.944;2023-05-23T02:37:26;14.60;99.90
26037;DHT22;13810;48.376;10.944;2023-05-23T02:37:57;14.60;99.90
26037;DHT22;13810;48.376;10.944;2023-05-23T02:38:27;14.60;99.90
26037;DHT22;13810;48.376;10.944;2023-05-23T02:39:00;14.60;99.90
26037;DHT22;13810;48.376;10.944;2023-05-23T02:39:30;14.60;99.90
26037;DHT22;13810;48.376;10.944;2023-05-23T02:40:01;14.60;99.90
26037;DHT22;13810;48.376;10.944;2023-05-23T02:40:32;14.60;99.90
26037;DHT22;13810;48.376;10.944;2023-05-23T02:41:03;14.60;99.90
26037;DHT22;13810;48.376;10.944;2023-05-23T02:41:34;14.60;99.90
26037;DHT22;13810;48.376;10.944;2023-05-23T02:42:06;14.60;99.90
26037;DHT22;13810;48.376;10.944;2023-05-23T02:42:37;14.60;99.90
26037;DHT22;13810;48.376;10.944;2023-05-23T02:43:07;14.60;99.90
26037;DHT22;13810;48.376;10.944;2023-05-23T02:43:38;14.60;99.90
26037;DHT22;13810;48.376;10.944;2023-05-23T02:44:09;14.60;99.90
26037;DHT22;13810;48.376;10.944;2023-05-23T02:44:39;14.60;99.90
26037;DHT22;13810;48.376;10.944;2023-05-23T02:45:10;14.50;99.90
26037;DHT22;13810;48.376;10.944;2023-05-23T02:45:41;14.50;99.90
26037;DHT22;13810;48.376;10.944;2023-05-23T02:46:11;14.60;99.90
26037;DHT22;13810;48.376;10.944;2023-05-23T02:46:43;14.60;99.90
26037;DHT22;13810;48.376;10.944;2023-05-23T02:47:13;14.60;99.90
26037;DHT22;13810;48.376;10.944;2023-05-23T02:47:44;14.50;99.90
26037;DHT22;13810;48.376;10.944;2023-05-23T02:48:15;14.50;99.90
26037;DHT22;13810;48.376;10.944;2023-05-23T02:48:46;14.50;99.90
26037;DHT22;13810;48.376;10.944;2023-05-23T02:49:16;14.50;99.90
26037;DHT22;13810;48.376;10.944;2023-05-23T02:49:47;14.50;99.90
26037;DHT22;13810;48.376;10.944;2023-05-23T02:50:18;14.50;99.90
26037;DHT22;13810;48.376;10.944;2023-05-23T02:50:48;14.50;99.90
26037;DHT22;13810;48.376;10.944;2023-05-23T02:51:19;14.50;99.90
26037;DHT22;13810;48.376;10.944;2023-05-23T02:51:50;14.50;99.90
26037;DHT22;13810;48.376;10.944;2023-05-23T02:52:21;14.50;99.90
26037;DHT22;13810;48.376;10.944;2023-05-23T02:52:52;14.50;99.90
26037;DHT22;13810;48.376;10.944;2023-05-23T02:53:22;14.50;99.90
26037;DHT22;13810;48.376;10.944;2023-05-23T02:53:53;14.50;99.90
26037;DHT22;13810;48.376;10.944;2023-05-23T02:54:23;14.50;99.90
26037;DHT22;13810;48.376;10.944;2023-05-23T02:54:54;14.50;99.90
26037;DHT22;13810;48.376;10.944;2023-05-23T02:55:25;14.50;99.90
26037;DHT22;13810;48.376;10.944;2023-05-23T02:55:56;14.50;99.90
26037;DHT22;13810;48.376;10.944;2023-05-23T02:56:26;14.50;99.90
26037;DHT22;13810;48.376;10.944;2023-05-23T02:56:57;14.50;99.90
26037;DHT22;13810;48.376;10.944;2023-05-23T02:57:28;14.50;99.90
26037;DHT22;13810;48.376;10.944;2023-05-23T02:57:59;14.50;99.90
26037;DHT22;13810;48.376;10.944;2023-05-23T02:58:30;14.50;99.90
26037;DHT22;13810;48.376;10.944;2023-05-23T02:59:01;14.50;99.90
26037;DHT22;13810;48.376;10.944;2023-05-23T02:59:32;14.50;99.90
26037;DHT22;13810;48.376;10.944;2023-05-23T03:00:03;14.50;99.90
26037;DHT22;13810;48.376;10.944;2023-05-23T03:00:35;14.50;99.90
26037;DHT22;13810;48.376;10.944;2023-05-23T03:01:05;14.50;99.90
26037;DHT22;13810;48.376;10.944;2023-05-23T03:01:37;14.50;99.90
26037;DHT22;13810;48.376;10.944;2023-05-23T03:02:08;14.50;99.90
26037;DHT22;13810;48.376;10.944;2023-05-23T03:02:38;14.50;99.90
26037;DHT22;13810;48.376;10.944;2023-05-23T03:03:09;14.50;99.90
26037;DHT22;13810;48.376;10.944;2023-05-23T03:03:41;14.50;99.90
26037;DHT22;13810;48.376;10.944;2023-05-23T03:04:11;14.50;99.90
26037;DHT22;13810;48.376;10.944;2023-05-23T03:04:43;14.50;99.90
26037;DHT22;13810;48.376;10.944;2023-05-23T03:05:13;14.50;99.90
26037;DHT22;13810;48.376;10.944;2023-05-23T03:05:44;14.50;99.90
26037;DHT22;13810;48.376;10.944;2023-05-23T03:06:15;14.50;99.90
26037;DHT22;13810;48.376;10.944;2023-05-23T03:06:46;14.50;99.90
26037;DHT22;13810;48.376;10.944;2023-05-23T03:07:17;14.50;99.90
26037;DHT22;13810;48.376;10.944;2023-05-23T03:07:48;14.50;99.90
26037;DHT22;13810;48.376;10.944;2023-05-23T03:08:18;14.50;99.90
26037;DHT22;13810;48.376;10.944;2023-05-23T03:08:49;14.50;99.90
26037;DHT22;13810;48.376;10.944;2023-05-23T03:09:20;14.50;99.90
26037;DHT22;13810;48.376;10.944;2023-05-23T03:09:51;14.50;99.90
26037;DHT22;13810;48.376;10.944;2023-05-23T03:10:21;14.50;99.90
26037;DHT22;13810;48.376;10.944;2023-05-23T03:10:52;14.50;99.90
26037;DHT22;13810;48.376;10.944;2023-05-23T03:11:23;14.50;99.90
26037;DHT22;13810;48.376;10.944;2023-05-23T03:11:53;14.50;99.90
26037;DHT22;13810;48.376;10.944;2023-05-23T03:12:24;14.50;99.90
26037;DHT22;13810;48.376;10.944;2023-05-23T03:12:54;14.50;99.90
26037;DHT22;13810;48.376;10.944;2023-05-23T03:13:25;14.50;99.90
26037;DHT22;13810;48.376;10.944;2023-05-23T03:13:56;14.50;99.90
26037;DHT22;13810;48.376;10.944;2023-05-23T03:14:26;14.50;99.90
26037;DHT22;13810;48.376;10.944;2023-05-23T03:14:57;14.50;99.90
26037;DHT22;13810;48.376;10.944;2023-05-23T03:15:28;14.50;99.90
26037;DHT22;13810;48.376;10.944;2023-05-23T03:15:58;14.50;99.90
26037;DHT22;13810;48.376;10.944;2023-05-23T03:16:29;14.50;99.90
26037;DHT22;13810;48.376;10.944;2023-05-23T03:17:00;14.50;99.90
26037;DHT22;13810;48.376;10.944;2023-05-23T03:17:33;14.40;99.90
26037;DHT22;13810;48.376;10.944;2023-05-23T03:18:03;14.50;99.90
26037;DHT22;13810;48.376;10.944;2023-05-23T03:18:34;14.50;99.90
26037;DHT22;13810;48.376;10.944;2023-05-23T03:19:05;14.50;99.90
26037;DHT22;13810;48.376;10.944;2023-05-23T03:19:35;14.40;99.90
26037;DHT22;13810;48.376;10.944;2023-05-23T03:20:06;14.50;99.90
26037;DHT22;13810;48.376;10.944;2023-05-23T03:20:39;14.50;99.90
26037;DHT22;13810;48.376;10.944;2023-05-23T03:21:09;14.50;99.90
26037;DHT22;13810;48.376;10.944;2023-05-23T03:21:40;14.50;99.90
26037;DHT22;13810;48.376;10.944;2023-05-23T03:22:11;14.50;99.90
26037;DHT22;13810;48.376;10.944;2023-05-23T03:22:41;14.40;99.90
26037;DHT22;13810;48.376;10.944;2023-05-23T03:23:14;14.40;99.90
26037;DHT22;13810;48.376;10.944;2023-05-23T03:23:45;14.40;99.90